首页
METAR-TAF:

METAR-TAF

机场 :

Gilze-Rijen, 荷兰

纬度: 51-34N, 经度: 004-56E, 海拔: 15米

当前天气观测

该预报发布于28分钟前的18:32 UTC
风速12节,风向西南,有时为22节阵风,在西之间变化
温度 8°C
湿度 76%
气压 1018 hPa
能见度10公里或以上
少量云层高于2900英尺
散云层高于7900英尺
多云层高于8700英尺
少量云层高于3000英尺
多云层高于4000英尺

METAR: EHGR 181832Z AUTO 22012KT 180V260 9999 FEW029 SCT079 BKN087 08/04 Q1018 BLU 22012G22KT 9999 FEW030 BKN040

时间: 20:00 (19:00 UTC)

预报

该预报发布于2小时和0分钟前的17:00 UTC
预报有效从18日的 18点(UTC)到 19日的 06点(UTC)
风速13节,风向西转西南,有时为23节阵风
能见度10公里或以上
散云层高于2500英尺
多云层高于4000英尺
短暂存在
从 18日的 18点(UTC)到 18日的 21点(UTC)
风速15节,风向西转西南,有时为30节阵风
少量云层高于1800英尺, 积雨云.
多云层高于2000英尺
短暂存在
从 18日的 21点(UTC)到 19日的 02点(UTC)
能見度: 4000
少量云层高于1200英尺
散云层高于1800英尺, 积雨云.
多云层高于2000英尺
小雨, 小阵雨
短暂存在
从 18日的 22点(UTC)到 19日的 02点(UTC)
风速20节,风向西转西南,有时为40节阵风
能見度: 2500
少量云层高于700英尺
散云层高于1200英尺
多云层高于1500英尺, 积雨云.
雷暴, 雨, 小冰雹或雪球
成为
从 19日的 01点(UTC)到 19日的 02点(UTC)
风速13节,风向西

TAF: EHGR 181700Z 1818/1906 25013G23KT 9999 SCT025 BKN040 TEMPO 1818/1821 25015G30KT FEW018CB BKN020 TEMPO 1821/1902 4000 -RA -SHRA FEW012 SCT018CB BKN020 TEMPO 1822/1902 24020G40KT 2500 TSRAGS FEW007 SCT012 BKN015CB BECMG 1901/1902 27013KT

超过4000个机场的气象观测和天气预报(METAR&TAF报告)。

可查询的气象台以黄色和红色小点在地图上表示。

将鼠标移到小点上方,可查看气象台名称。

然后点击查看天气观测和预报。

如需切换地图:点击带黑十字的绿色按钮放大地图;点击带横线的绿色按钮缩小地图;或者点击绿色箭头查看邻近地区的地图。


METAR-TAF: